sensor_id;sensor_type;location;lat;lon;timestamp;P1;durP1;ratioP1;P2;durP2;ratioP2
11344;SDS011;5727;42.600;23.028;2023-03-12T00:01:54;5.83;;;5.20;;
11344;SDS011;5727;42.600;23.028;2023-03-12T00:04:20;4.87;;;4.50;;
11344;SDS011;5727;42.600;23.028;2023-03-12T00:06:47;5.47;;;4.67;;
11344;SDS011;5727;42.600;23.028;2023-03-12T00:09:14;5.03;;;4.63;;
11344;SDS011;5727;42.600;23.028;2023-03-12T00:11:42;6.43;;;4.77;;
11344;SDS011;5727;42.600;23.028;2023-03-12T00:14:09;5.00;;;4.70;;
11344;SDS011;5727;42.600;23.028;2023-03-12T00:16:35;5.53;;;5.00;;
11344;SDS011;5727;42.600;23.028;2023-03-12T00:19:02;5.23;;;4.83;;
11344;SDS011;5727;42.600;23.028;2023-03-12T00:21:29;5.57;;;5.07;;
11344;SDS011;5727;42.600;23.028;2023-03-12T00:23:55;5.73;;;5.07;;
11344;SDS011;5727;42.600;23.028;2023-03-12T00:26:22;7.37;;;5.60;;
11344;SDS011;5727;42.600;23.028;2023-03-12T00:28:50;5.27;;;4.83;;
11344;SDS011;5727;42.600;23.028;2023-03-12T00:31:18;6.10;;;5.60;;
11344;SDS011;5727;42.600;23.028;2023-03-12T00:33:47;5.70;;;5.27;;
11344;SDS011;5727;42.600;23.028;2023-03-12T00:36:14;5.83;;;5.33;;
11344;SDS011;5727;42.600;23.028;2023-03-12T00:38:41;9.20;;;5.30;;
11344;SDS011;5727;42.600;23.028;2023-03-12T00:41:08;6.20;;;4.67;;
11344;SDS011;5727;42.600;23.028;2023-03-12T00:43:35;5.80;;;5.40;;
11344;SDS011;5727;42.600;23.028;2023-03-12T00:46:03;6.33;;;5.80;;
11344;SDS011;5727;42.600;23.028;2023-03-12T00:48:30;5.50;;;5.00;;
11344;SDS011;5727;42.600;23.028;2023-03-12T00:50:56;5.87;;;5.37;;
11344;SDS011;5727;42.600;23.028;2023-03-12T00:53:23;5.43;;;5.03;;
11344;SDS011;5727;42.600;23.028;2023-03-12T00:55:50;6.97;;;6.30;;
11344;SDS011;5727;42.600;23.028;2023-03-12T00:58:17;5.90;;;5.50;;
11344;SDS011;5727;42.600;23.028;2023-03-12T01:00:43;5.83;;;5.33;;
11344;SDS011;5727;42.600;23.028;2023-03-12T01:03:12;6.30;;;5.70;;
11344;SDS011;5727;42.600;23.028;2023-03-12T01:05:38;10.37;;;5.77;;
11344;SDS011;5727;42.600;23.028;2023-03-12T01:08:05;6.30;;;5.37;;
11344;SDS011;5727;42.600;23.028;2023-03-12T01:10:33;7.87;;;5.47;;
11344;SDS011;5727;42.600;23.028;2023-03-12T01:12:59;6.43;;;5.10;;
11344;SDS011;5727;42.600;23.028;2023-03-12T01:15:26;5.17;;;4.77;;
11344;SDS011;5727;42.600;23.028;2023-03-12T01:17:53;5.40;;;5.00;;
11344;SDS011;5727;42.600;23.028;2023-03-12T01:20:21;5.40;;;4.90;;
11344;SDS011;5727;42.600;23.028;2023-03-12T01:22:48;5.50;;;5.10;;
11344;SDS011;5727;42.600;23.028;2023-03-12T01:25:15;6.10;;;5.53;;
11344;SDS011;5727;42.600;23.028;2023-03-12T01:27:42;5.53;;;5.10;;
11344;SDS011;5727;42.600;23.028;2023-03-12T01:30:09;7.67;;;6.80;;
11344;SDS011;5727;42.600;23.028;2023-03-12T01:32:37;8.80;;;7.90;;
11344;SDS011;5727;42.600;23.028;2023-03-12T01:35:04;7.70;;;6.87;;
11344;SDS011;5727;42.600;23.028;2023-03-12T01:37:32;10.07;;;7.20;;
11344;SDS011;5727;42.600;23.028;2023-03-12T01:39:59;11.00;;;8.50;;
11344;SDS011;5727;42.600;23.028;2023-03-12T01:42:26;11.23;;;8.00;;
11344;SDS011;5727;42.600;23.028;2023-03-12T01:44:53;10.43;;;8.13;;
11344;SDS011;5727;42.600;23.028;2023-03-12T01:47:22;8.77;;;7.50;;
11344;SDS011;5727;42.600;23.028;2023-03-12T01:49:50;10.70;;;8.20;;
11344;SDS011;5727;42.600;23.028;2023-03-12T01:52:19;15.47;;;9.20;;
11344;SDS011;5727;42.600;23.028;2023-03-12T01:54:51;12.93;;;8.43;;
11344;SDS011;5727;42.600;23.028;2023-03-12T01:57:21;9.87;;;8.13;;
11344;SDS011;5727;42.600;23.028;2023-03-12T01:59:53;11.70;;;6.93;;
11344;SDS011;5727;42.600;23.028;2023-03-12T02:02:25;9.33;;;7.30;;
11344;SDS011;5727;42.600;23.028;2023-03-12T02:04:56;12.40;;;7.30;;
11344;SDS011;5727;42.600;23.028;2023-03-12T02:07:29;9.47;;;7.63;;
11344;SDS011;5727;42.600;23.028;2023-03-12T02:09:57;11.33;;;8.07;;
11344;SDS011;5727;42.600;23.028;2023-03-12T02:12:24;12.50;;;7.13;;
11344;SDS011;5727;42.600;23.028;2023-03-12T02:14:50;13.50;;;8.07;;
11344;SDS011;5727;42.600;23.028;2023-03-12T02:17:17;9.70;;;7.30;;
11344;SDS011;5727;42.600;23.028;2023-03-12T02:19:46;11.53;;;7.07;;
11344;SDS011;5727;42.600;23.028;2023-03-12T02:22:21;12.90;;;7.73;;
11344;SDS011;5727;42.600;23.028;2023-03-12T02:24:50;8.47;;;7.33;;
11344;SDS011;5727;42.600;23.028;2023-03-12T02:27:24;9.33;;;7.90;;
11344;SDS011;5727;42.600;23.028;2023-03-12T02:29:51;8.70;;;7.87;;
11344;SDS011;5727;42.600;23.028;2023-03-12T02:32:19;8.30;;;7.40;;
11344;SDS011;5727;42.600;23.028;2023-03-12T02:34:50;8.70;;;6.60;;
11344;SDS011;5727;42.600;23.028;2023-03-12T02:37:16;7.97;;;7.17;;
11344;SDS011;5727;42.600;23.028;2023-03-12T02:39:44;7.73;;;6.97;;
11344;SDS011;5727;42.600;23.028;2023-03-12T02:42:15;7.40;;;6.70;;
11344;SDS011;5727;42.600;23.028;2023-03-12T02:44:43;7.63;;;6.53;;
11344;SDS011;5727;42.600;23.028;2023-03-12T02:47:10;7.47;;;6.37;;
11344;SDS011;5727;42.600;23.028;2023-03-12T02:49:37;9.40;;;6.77;;
11344;SDS011;5727;42.600;23.028;2023-03-12T02:52:03;9.47;;;6.83;;
11344;SDS011;5727;42.600;23.028;2023-03-12T02:54:30;10.37;;;6.83;;
11344;SDS011;5727;42.600;23.028;2023-03-12T02:56:57;7.70;;;7.00;;
11344;SDS011;5727;42.600;23.028;2023-03-12T02:59:24;8.63;;;6.67;;
11344;SDS011;5727;42.600;23.028;2023-03-12T03:01:53;11.07;;;9.13;;
11344;SDS011;5727;42.600;23.028;2023-03-12T03:04:20;8.73;;;7.83;;
11344;SDS011;5727;42.600;23.028;2023-03-12T03:06:47;10.20;;;7.07;;
11344;SDS011;5727;42.600;23.028;2023-03-12T03:09:14;7.17;;;6.53;;
11344;SDS011;5727;42.600;23.028;2023-03-12T03:11:41;7.83;;;7.03;;
11344;SDS011;5727;42.600;23.028;2023-03-12T03:14:07;8.70;;;7.67;;
11344;SDS011;5727;42.600;23.028;2023-03-12T03:16:34;7.20;;;6.47;;
11344;SDS011;5727;42.600;23.028;2023-03-12T03:19:03;7.73;;;6.80;;
11344;SDS011;5727;42.600;23.028;2023-03-12T03:21:29;7.53;;;6.83;;
11344;SDS011;5727;42.600;23.028;2023-03-12T03:23:56;7.77;;;7.07;;
11344;SDS011;5727;42.600;23.028;2023-03-12T03:26:23;8.77;;;6.80;;
11344;SDS011;5727;42.600;23.028;2023-03-12T03:28:50;8.27;;;7.10;;
11344;SDS011;5727;42.600;23.028;2023-03-12T03:31:17;8.20;;;7.40;;
11344;SDS011;5727;42.600;23.028;2023-03-12T03:33:44;11.30;;;7.57;;
11344;SDS011;5727;42.600;23.028;2023-03-12T03:36:13;10.37;;;7.57;;
11344;SDS011;5727;42.600;23.028;2023-03-12T03:38:39;8.83;;;7.93;;
11344;SDS011;5727;42.600;23.028;2023-03-12T03:41:08;8.97;;;8.13;;
11344;SDS011;5727;42.600;23.028;2023-03-12T03:43:35;8.43;;;7.67;;
11344;SDS011;5727;42.600;23.028;2023-03-12T03:46:02;9.17;;;7.87;;
11344;SDS011;5727;42.600;23.028;2023-03-12T03:48:30;9.87;;;8.20;;
11344;SDS011;5727;42.600;23.028;2023-03-12T03:50:58;12.23;;;7.67;;
11344;SDS011;5727;42.600;23.028;2023-03-12T03:53:27;7.93;;;6.80;;
11344;SDS011;5727;42.600;23.028;2023-03-12T03:55:54;7.10;;;6.33;;
11344;SDS011;5727;42.600;23.028;2023-03-12T03:58:21;6.70;;;6.17;;
11344;SDS011;5727;42.600;23.028;2023-03-12T04:00:48;6.73;;;6.13;;
11344;SDS011;5727;42.600;23.028;2023-03-12T04:03:15;7.10;;;6.50;;
11344;SDS011;5727;42.600;23.028;2023-03-12T04:05:42;8.13;;;7.33;;
11344;SDS011;5727;42.600;23.028;2023-03-12T04:08:10;8.07;;;6.60;;
11344;SDS011;5727;42.600;23.028;2023-03-12T04:10:38;5.83;;;5.33;;
11344;SDS011;5727;42.600;23.028;2023-03-12T04:13:05;6.20;;;5.80;;
11344;SDS011;5727;42.600;23.028;2023-03-12T04:15:32;5.40;;;5.00;;
11344;SDS011;5727;42.600;23.028;2023-03-12T04:17:59;5.63;;;4.90;;
11344;SDS011;5727;42.600;23.028;2023-03-12T04:20:26;5.37;;;4.97;;
11344;SDS011;5727;42.600;23.028;2023-03-12T04:22:52;5.20;;;4.80;;
11344;SDS011;5727;42.600;23.028;2023-03-12T04:25:19;5.57;;;4.97;;
11344;SDS011;5727;42.600;23.028;2023-03-12T04:27:47;5.90;;;5.50;;
11344;SDS011;5727;42.600;23.028;2023-03-12T04:30:14;5.70;;;5.30;;
11344;SDS011;5727;42.600;23.028;2023-03-12T04:32:40;5.50;;;5.00;;
11344;SDS011;5727;42.600;23.028;2023-03-12T04:35:07;5.20;;;4.80;;
11344;SDS011;5727;42.600;23.028;2023-03-12T04:37:34;5.27;;;4.87;;
11344;SDS011;5727;42.600;23.028;2023-03-12T04:40:01;5.30;;;4.90;;
11344;SDS011;5727;42.600;23.028;2023-03-12T04:42:32;5.87;;;5.27;;
11344;SDS011;5727;42.600;23.028;2023-03-12T04:45:01;5.53;;;5.13;;
11344;SDS011;5727;42.600;23.028;2023-03-12T04:47:29;5.83;;;5.33;;
11344;SDS011;5727;42.600;23.028;2023-03-12T04:49:55;5.80;;;5.30;;
11344;SDS011;5727;42.600;23.028;2023-03-12T04:52:22;5.53;;;5.03;;
11344;SDS011;5727;42.600;23.028;2023-03-12T04:54:49;5.40;;;4.90;;
11344;SDS011;5727;42.600;23.028;2023-03-12T04:57:16;6.53;;;5.53;;
11344;SDS011;5727;42.600;23.028;2023-03-12T04:59:42;6.03;;;5.37;;
11344;SDS011;5727;42.600;23.028;2023-03-12T05:02:10;5.57;;;5.00;;
11344;SDS011;5727;42.600;23.028;2023-03-12T05:04:37;10.20;;;5.23;;
11344;SDS011;5727;42.600;23.028;2023-03-12T05:07:04;5.47;;;4.97;;
11344;SDS011;5727;42.600;23.028;2023-03-12T05:09:31;5.73;;;5.23;;
11344;SDS011;5727;42.600;23.028;2023-03-12T05:11:58;6.23;;;5.63;;
11344;SDS011;5727;42.600;23.028;2023-03-12T05:14:24;6.33;;;5.80;;
11344;SDS011;5727;42.600;23.028;2023-03-12T05:16:51;8.60;;;6.80;;
11344;SDS011;5727;42.600;23.028;2023-03-12T05:19:19;6.37;;;5.87;;
11344;SDS011;5727;42.600;23.028;2023-03-12T05:21:46;6.33;;;5.83;;
11344;SDS011;5727;42.600;23.028;2023-03-12T05:24:12;5.60;;;5.20;;
11344;SDS011;5727;42.600;23.028;2023-03-12T05:26:41;5.83;;;5.23;;
11344;SDS011;5727;42.600;23.028;2023-03-12T05:29:08;5.63;;;4.87;;
11344;SDS011;5727;42.600;23.028;2023-03-12T05:31:34;5.63;;;5.23;;
11344;SDS011;5727;42.600;23.028;2023-03-12T05:34:01;5.50;;;5.10;;
11344;SDS011;5727;42.600;23.028;2023-03-12T05:36:30;5.50;;;5.10;;
11344;SDS011;5727;42.600;23.028;2023-03-12T05:38:56;7.03;;;5.20;;
11344;SDS011;5727;42.600;23.028;2023-03-12T05:41:24;5.27;;;4.93;;
11344;SDS011;5727;42.600;23.028;2023-03-12T05:43:52;7.10;;;4.30;;
11344;SDS011;5727;42.600;23.028;2023-03-12T05:46:21;4.93;;;4.60;;
11344;SDS011;5727;42.600;23.028;2023-03-12T05:48:48;5.30;;;4.80;;
11344;SDS011;5727;42.600;23.028;2023-03-12T05:51:16;4.90;;;4.50;;
11344;SDS011;5727;42.600;23.028;2023-03-12T05:53:44;5.47;;;5.10;;
11344;SDS011;5727;42.600;23.028;2023-03-12T05:56:12;5.10;;;4.70;;
11344;SDS011;5727;42.600;23.028;2023-03-12T05:58:40;4.70;;;4.40;;
11344;SDS011;5727;42.600;23.028;2023-03-12T06:01:10;5.67;;;4.90;;
11344;SDS011;5727;42.600;23.028;2023-03-12T06:03:38;5.77;;;5.27;;
11344;SDS011;5727;42.600;23.028;2023-03-12T06:06:06;5.87;;;5.37;;
11344;SDS011;5727;42.600;23.028;2023-03-12T06:08:33;5.83;;;5.23;;
11344;SDS011;5727;42.600;23.028;2023-03-12T06:11:01;5.70;;;5.20;;
11344;SDS011;5727;42.600;23.028;2023-03-12T06:13:28;6.13;;;4.90;;
11344;SDS011;5727;42.600;23.028;2023-03-12T06:16:00;5.10;;;4.70;;
11344;SDS011;5727;42.600;23.028;2023-03-12T06:18:29;4.40;;;4.10;;
11344;SDS011;5727;42.600;23.028;2023-03-12T06:21:06;5.73;;;5.23;;
11344;SDS011;5727;42.600;23.028;2023-03-12T06:23:34;4.30;;;3.83;;
11344;SDS011;5727;42.600;23.028;2023-03-12T06:26:02;4.40;;;4.00;;
11344;SDS011;5727;42.600;23.028;2023-03-12T06:28:29;4.60;;;4.30;;
11344;SDS011;5727;42.600;23.028;2023-03-12T06:30:55;4.17;;;3.87;;
11344;SDS011;5727;42.600;23.028;2023-03-12T06:33:22;3.80;;;3.60;;
11344;SDS011;5727;42.600;23.028;2023-03-12T06:35:52;4.60;;;4.20;;
11344;SDS011;5727;42.600;23.028;2023-03-12T06:38:19;4.97;;;3.97;;
11344;SDS011;5727;42.600;23.028;2023-03-12T06:40:52;4.00;;;3.70;;
11344;SDS011;5727;42.600;23.028;2023-03-12T06:43:21;4.47;;;4.03;;
11344;SDS011;5727;42.600;23.028;2023-03-12T06:45:48;3.83;;;3.63;;
11344;SDS011;5727;42.600;23.028;2023-03-12T06:48:15;4.20;;;3.90;;
11344;SDS011;5727;42.600;23.028;2023-03-12T06:50:41;4.10;;;3.80;;
11344;SDS011;5727;42.600;23.028;2023-03-12T06:53:08;3.50;;;3.30;;
11344;SDS011;5727;42.600;23.028;2023-03-12T06:55:35;3.70;;;3.50;;
11344;SDS011;5727;42.600;23.028;2023-03-12T06:58:01;3.77;;;3.47;;
11344;SDS011;5727;42.600;23.028;2023-03-12T07:00:30;3.93;;;3.63;;
11344;SDS011;5727;42.600;23.028;2023-03-12T07:02:57;4.70;;;4.30;;
11344;SDS011;5727;42.600;23.028;2023-03-12T07:05:24;4.30;;;4.00;;
11344;SDS011;5727;42.600;23.028;2023-03-12T07:07:50;4.63;;;4.23;;
11344;SDS011;5727;42.600;23.028;2023-03-12T07:10:17;4.37;;;4.07;;
11344;SDS011;5727;42.600;23.028;2023-03-12T07:12:44;5.60;;;4.00;;
11344;SDS011;5727;42.600;23.028;2023-03-12T07:15:11;4.30;;;3.83;;
11344;SDS011;5727;42.600;23.028;2023-03-12T07:17:39;4.20;;;3.90;;
11344;SDS011;5727;42.600;23.028;2023-03-12T07:20:06;3.70;;;3.50;;
11344;SDS011;5727;42.600;23.028;2023-03-12T07:22:34;4.20;;;3.90;;
11344;SDS011;5727;42.600;23.028;2023-03-12T07:25:01;4.30;;;4.00;;
11344;SDS011;5727;42.600;23.028;2023-03-12T07:27:28;4.30;;;4.00;;
11344;SDS011;5727;42.600;23.028;2023-03-12T07:29:55;4.80;;;3.90;;
11344;SDS011;5727;42.600;23.028;2023-03-12T07:32:22;3.70;;;3.50;;
11344;SDS011;5727;42.600;23.028;2023-03-12T07:34:50;4.00;;;3.77;;
11344;SDS011;5727;42.600;23.028;2023-03-12T07:37:17;5.03;;;4.50;;
11344;SDS011;5727;42.600;23.028;2023-03-12T07:39:43;4.10;;;3.70;;
11344;SDS011;5727;42.600;23.028;2023-03-12T07:42:15;3.87;;;3.50;;
11344;SDS011;5727;42.600;23.028;2023-03-12T07:44:42;3.60;;;3.40;;
11344;SDS011;5727;42.600;23.028;2023-03-12T07:47:09;3.70;;;3.50;;
11344;SDS011;5727;42.600;23.028;2023-03-12T07:49:35;3.70;;;3.50;;
11344;SDS011;5727;42.600;23.028;2023-03-12T07:52:03;3.60;;;3.40;;
11344;SDS011;5727;42.600;23.028;2023-03-12T07:54:34;3.90;;;3.60;;
11344;SDS011;5727;42.600;23.028;2023-03-12T07:57:00;4.20;;;3.80;;
11344;SDS011;5727;42.600;23.028;2023-03-12T07:59:27;4.00;;;3.80;;
11344;SDS011;5727;42.600;23.028;2023-03-12T08:01:54;3.70;;;3.50;;
11344;SDS011;5727;42.600;23.028;2023-03-12T08:04:20;4.07;;;3.87;;
11344;SDS011;5727;42.600;23.028;2023-03-12T08:06:47;3.90;;;3.70;;
11344;SDS011;5727;42.600;23.028;2023-03-12T08:09:15;4.00;;;3.70;;
11344;SDS011;5727;42.600;23.028;2023-03-12T08:11:42;4.90;;;4.40;;
11344;SDS011;5727;42.600;23.028;2023-03-12T08:14:09;3.90;;;3.70;;
11344;SDS011;5727;42.600;23.028;2023-03-12T08:16:36;3.90;;;3.60;;
11344;SDS011;5727;42.600;23.028;2023-03-12T08:19:02;4.03;;;3.57;;
11344;SDS011;5727;42.600;23.028;2023-03-12T08:21:29;3.97;;;3.67;;
11344;SDS011;5727;42.600;23.028;2023-03-12T08:23:56;4.33;;;3.93;;
11344;SDS011;5727;42.600;23.028;2023-03-12T08:26:24;4.33;;;4.03;;
11344;SDS011;5727;42.600;23.028;2023-03-12T08:28:50;4.20;;;3.90;;
11344;SDS011;5727;42.600;23.028;2023-03-12T08:31:17;3.97;;;3.77;;
11344;SDS011;5727;42.600;23.028;2023-03-12T08:33:44;4.03;;;3.83;;
11344;SDS011;5727;42.600;23.028;2023-03-12T08:36:11;3.90;;;3.70;;
11344;SDS011;5727;42.600;23.028;2023-03-12T08:38:38;4.13;;;3.73;;
11344;SDS011;5727;42.600;23.028;2023-03-12T08:41:04;4.10;;;3.80;;
11344;SDS011;5727;42.600;23.028;2023-03-12T08:43:33;3.80;;;3.60;;
11344;SDS011;5727;42.600;23.028;2023-03-12T08:46:00;4.00;;;3.80;;
11344;SDS011;5727;42.600;23.028;2023-03-12T08:48:28;3.80;;;3.60;;
11344;SDS011;5727;42.600;23.028;2023-03-12T08:50:56;3.93;;;3.70;;
11344;SDS011;5727;42.600;23.028;2023-03-12T08:53:25;3.90;;;3.60;;
11344;SDS011;5727;42.600;23.028;2023-03-12T08:55:52;3.60;;;3.30;;
11344;SDS011;5727;42.600;23.028;2023-03-12T08:58:19;4.00;;;3.70;;
11344;SDS011;5727;42.600;23.028;2023-03-12T09:00:47;3.97;;;3.67;;
11344;SDS011;5727;42.600;23.028;2023-03-12T09:03:14;4.23;;;3.93;;
11344;SDS011;5727;42.600;23.028;2023-03-12T09:05:40;3.63;;;3.33;;
11344;SDS011;5727;42.600;23.028;2023-03-12T09:08:08;3.63;;;3.43;;
11344;SDS011;5727;42.600;23.028;2023-03-12T09:10:35;4.00;;;3.70;;
11344;SDS011;5727;42.600;23.028;2023-03-12T09:13:02;3.97;;;3.77;;
11344;SDS011;5727;42.600;23.028;2023-03-12T09:15:30;4.47;;;4.17;;
11344;SDS011;5727;42.600;23.028;2023-03-12T09:17:58;4.13;;;3.73;;
11344;SDS011;5727;42.600;23.028;2023-03-12T09:20:25;3.83;;;3.53;;
11344;SDS011;5727;42.600;23.028;2023-03-12T09:22:51;3.97;;;3.77;;
11344;SDS011;5727;42.600;23.028;2023-03-12T09:25:18;4.37;;;3.70;;
11344;SDS011;5727;42.600;23.028;2023-03-12T09:27:47;4.40;;;4.10;;
11344;SDS011;5727;42.600;23.028;2023-03-12T09:30:15;4.37;;;4.07;;
11344;SDS011;5727;42.600;23.028;2023-03-12T09:32:43;3.97;;;3.67;;
11344;SDS011;5727;42.600;23.028;2023-03-12T09:35:12;3.90;;;3.70;;
11344;SDS011;5727;42.600;23.028;2023-03-12T09:37:40;3.87;;;3.67;;
11344;SDS011;5727;42.600;23.028;2023-03-12T09:40:10;4.00;;;3.70;;
11344;SDS011;5727;42.600;23.028;2023-03-12T09:42:42;3.97;;;3.77;;
11344;SDS011;5727;42.600;23.028;2023-03-12T09:45:14;3.53;;;3.33;;
11344;SDS011;5727;42.600;23.028;2023-03-12T09:47:45;3.90;;;3.60;;
11344;SDS011;5727;42.600;23.028;2023-03-12T09:50:18;4.13;;;3.73;;
11344;SDS011;5727;42.600;23.028;2023-03-12T09:52:49;4.03;;;3.83;;
11344;SDS011;5727;42.600;23.028;2023-03-12T09:55:19;3.97;;;3.77;;
11344;SDS011;5727;42.600;23.028;2023-03-12T09:57:47;3.80;;;3.60;;
11344;SDS011;5727;42.600;23.028;2023-03-12T10:00:16;3.80;;;3.60;;
11344;SDS011;5727;42.600;23.028;2023-03-12T10:02:50;3.50;;;3.30;;
11344;SDS011;5727;42.600;23.028;2023-03-12T10:05:32;4.07;;;3.63;;
11344;SDS011;5727;42.600;23.028;2023-03-12T10:08:04;3.90;;;3.67;;
11344;SDS011;5727;42.600;23.028;2023-03-12T10:10:38;3.40;;;3.20;;
11344;SDS011;5727;42.600;23.028;2023-03-12T10:13:16;4.00;;;3.70;;
11344;SDS011;5727;42.600;23.028;2023-03-12T10:16:01;4.10;;;3.80;;
11344;SDS011;5727;42.600;23.028;2023-03-12T10:18:50;4.30;;;3.90;;
11344;SDS011;5727;42.600;23.028;2023-03-12T10:21:36;3.97;;;3.60;;
11344;SDS011;5727;42.600;23.028;2023-03-12T10:24:13;3.93;;;3.73;;
11344;SDS011;5727;42.600;23.028;2023-03-12T10:26:53;6.03;;;3.50;;
11344;SDS011;5727;42.600;23.028;2023-03-12T10:29:23;3.43;;;3.23;;
11344;SDS011;5727;42.600;23.028;2023-03-12T10:31:54;3.30;;;3.10;;
11344;SDS011;5727;42.600;23.028;2023-03-12T10:34:28;3.60;;;3.30;;
11344;SDS011;5727;42.600;23.028;2023-03-12T10:37:01;3.30;;;3.20;;
11344;SDS011;5727;42.600;23.028;2023-03-12T10:39:37;3.60;;;3.40;;
11344;SDS011;5727;42.600;23.028;2023-03-12T10:42:09;3.50;;;3.30;;
11344;SDS011;5727;42.600;23.028;2023-03-12T10:44:40;3.17;;;3.07;;
11344;SDS011;5727;42.600;23.028;2023-03-12T10:47:09;3.97;;;3.60;;
11344;SDS011;5727;42.600;23.028;2023-03-12T10:49:50;3.43;;;3.23;;
11344;SDS011;5727;42.600;23.028;2023-03-12T10:52:19;3.27;;;3.07;;
11344;SDS011;5727;42.600;23.028;2023-03-12T10:54:47;3.33;;;3.13;;
11344;SDS011;5727;42.600;23.028;2023-03-12T10:57:16;3.50;;;3.30;;
11344;SDS011;5727;42.600;23.028;2023-03-12T10:59:45;3.40;;;3.20;;
11344;SDS011;5727;42.600;23.028;2023-03-12T11:02:26;3.30;;;3.10;;
11344;SDS011;5727;42.600;23.028;2023-03-12T11:04:55;3.10;;;2.93;;
11344;SDS011;5727;42.600;23.028;2023-03-12T11:07:24;3.07;;;2.97;;
11344;SDS011;5727;42.600;23.028;2023-03-12T11:10:14;3.47;;;3.27;;
11344;SDS011;5727;42.600;23.028;2023-03-12T11:12:56;4.27;;;3.67;;
11344;SDS011;5727;42.600;23.028;2023-03-12T11:15:29;3.17;;;2.97;;
11344;SDS011;5727;42.600;23.028;2023-03-12T11:18:17;3.83;;;3.57;;
11344;SDS011;5727;42.600;23.028;2023-03-12T11:20:46;3.33;;;3.07;;
11344;SDS011;5727;42.600;23.028;2023-03-12T11:23:16;3.53;;;3.30;;
11344;SDS011;5727;42.600;23.028;2023-03-12T11:25:51;2.90;;;2.80;;
11344;SDS011;5727;42.600;23.028;2023-03-12T11:28:21;3.30;;;3.10;;
11344;SDS011;5727;42.600;23.028;2023-03-12T11:30:51;3.07;;;2.90;;
11344;SDS011;5727;42.600;23.028;2023-03-12T11:33:22;3.40;;;3.20;;
11344;SDS011;5727;42.600;23.028;2023-03-12T11:35:51;3.10;;;2.80;;
11344;SDS011;5727;42.600;23.028;2023-03-12T11:38:31;2.97;;;2.87;;
11344;SDS011;5727;42.600;23.028;2023-03-12T11:41:07;3.00;;;2.80;;
11344;SDS011;5727;42.600;23.028;2023-03-12T11:43:47;3.37;;;3.17;;
11344;SDS011;5727;42.600;23.028;2023-03-12T11:46:26;2.93;;;2.70;;
11344;SDS011;5727;42.600;23.028;2023-03-12T11:49:04;3.27;;;3.07;;
11344;SDS011;5727;42.600;23.028;2023-03-12T11:51:39;2.70;;;2.60;;
11344;SDS011;5727;42.600;23.028;2023-03-12T11:57:34;3.07;;;2.87;;
11344;SDS011;5727;42.600;23.028;2023-03-12T12:00:13;2.80;;;2.70;;
11344;SDS011;5727;42.600;23.028;2023-03-12T12:05:44;3.07;;;2.80;;
11344;SDS011;5727;42.600;23.028;2023-03-12T12:08:22;2.93;;;2.73;;
11344;SDS011;5727;42.600;23.028;2023-03-12T12:10:58;3.17;;;2.97;;
11344;SDS011;5727;42.600;23.028;2023-03-12T12:13:32;3.00;;;2.70;;
11344;SDS011;5727;42.600;23.028;2023-03-12T12:16:12;3.27;;;3.13;;
11344;SDS011;5727;42.600;23.028;2023-03-12T12:18:56;2.90;;;2.80;;
11344;SDS011;5727;42.600;23.028;2023-03-12T12:21:34;3.23;;;3.03;;
11344;SDS011;5727;42.600;23.028;2023-03-12T12:24:15;2.70;;;2.60;;
11344;SDS011;5727;42.600;23.028;2023-03-12T12:26:52;3.60;;;3.40;;
11344;SDS011;5727;42.600;23.028;2023-03-12T12:29:28;3.80;;;3.50;;
11344;SDS011;5727;42.600;23.028;2023-03-12T12:32:06;2.80;;;2.60;;
11344;SDS011;5727;42.600;23.028;2023-03-12T12:37:45;3.23;;;3.07;;
11344;SDS011;5727;42.600;23.028;2023-03-12T12:40:18;4.17;;;3.77;;
11344;SDS011;5727;42.600;23.028;2023-03-12T12:42:51;3.10;;;2.80;;
11344;SDS011;5727;42.600;23.028;2023-03-12T12:45:23;2.80;;;2.60;;
11344;SDS011;5727;42.600;23.028;2023-03-12T12:47:54;2.73;;;2.53;;
11344;SDS011;5727;42.600;23.028;2023-03-12T12:50:26;2.57;;;2.47;;
11344;SDS011;5727;42.600;23.028;2023-03-12T12:52:58;4.43;;;2.80;;
11344;SDS011;5727;42.600;23.028;2023-03-12T12:55:34;2.77;;;2.57;;
11344;SDS011;5727;42.600;23.028;2023-03-12T12:58:09;3.13;;;2.83;;
11344;SDS011;5727;42.600;23.028;2023-03-12T13:00:45;2.53;;;2.43;;
11344;SDS011;5727;42.600;23.028;2023-03-12T13:03:15;2.30;;;2.20;;
11344;SDS011;5727;42.600;23.028;2023-03-12T13:05:45;2.53;;;2.43;;
11344;SDS011;5727;42.600;23.028;2023-03-12T13:08:32;2.30;;;2.20;;
11344;SDS011;5727;42.600;23.028;2023-03-12T13:11:23;2.97;;;2.63;;
11344;SDS011;5727;42.600;23.028;2023-03-12T13:19:57;2.37;;;2.17;;
11344;SDS011;5727;42.600;23.028;2023-03-12T13:22:40;2.10;;;1.90;;
11344;SDS011;5727;42.600;23.028;2023-03-12T13:25:23;1.83;;;1.73;;
11344;SDS011;5727;42.600;23.028;2023-03-12T13:27:57;1.90;;;1.80;;
11344;SDS011;5727;42.600;23.028;2023-03-12T13:30:45;2.07;;;1.97;;
11344;SDS011;5727;42.600;23.028;2023-03-12T13:33:16;2.20;;;2.10;;
11344;SDS011;5727;42.600;23.028;2023-03-12T13:36:02;2.70;;;2.50;;
11344;SDS011;5727;42.600;23.028;2023-03-12T13:38:37;2.30;;;2.20;;
11344;SDS011;5727;42.600;23.028;2023-03-12T13:41:27;2.67;;;2.47;;
11344;SDS011;5727;42.600;23.028;2023-03-12T13:43:56;2.33;;;2.20;;
11344;SDS011;5727;42.600;23.028;2023-03-12T13:46:48;3.20;;;2.67;;
11344;SDS011;5727;42.600;23.028;2023-03-12T13:49:23;2.63;;;2.50;;
11344;SDS011;5727;42.600;23.028;2023-03-12T13:51:58;2.30;;;2.20;;
11344;SDS011;5727;42.600;23.028;2023-03-12T13:54:31;2.10;;;2.00;;
11344;SDS011;5727;42.600;23.028;2023-03-12T13:57:00;2.43;;;2.33;;
11344;SDS011;5727;42.600;23.028;2023-03-12T13:59:29;2.30;;;2.20;;
11344;SDS011;5727;42.600;23.028;2023-03-12T14:02:00;2.30;;;2.20;;
11344;SDS011;5727;42.600;23.028;2023-03-12T14:04:40;2.80;;;2.60;;
11344;SDS011;5727;42.600;23.028;2023-03-12T14:07:15;2.70;;;2.50;;
11344;SDS011;5727;42.600;23.028;2023-03-12T14:09:56;3.03;;;2.80;;
11344;SDS011;5727;42.600;23.028;2023-03-12T14:12:31;2.90;;;2.70;;
11344;SDS011;5727;42.600;23.028;2023-03-12T14:15:04;2.60;;;2.40;;
11344;SDS011;5727;42.600;23.028;2023-03-12T14:17:39;3.07;;;2.70;;
11344;SDS011;5727;42.600;23.028;2023-03-12T14:20:10;2.47;;;2.33;;
11344;SDS011;5727;42.600;23.028;2023-03-12T14:22:42;2.80;;;2.40;;
11344;SDS011;5727;42.600;23.028;2023-03-12T14:25:15;2.73;;;2.47;;
11344;SDS011;5727;42.600;23.028;2023-03-12T14:27:47;2.70;;;2.50;;
11344;SDS011;5727;42.600;23.028;2023-03-12T14:30:15;2.13;;;2.03;;
11344;SDS011;5727;42.600;23.028;2023-03-12T14:32:47;2.60;;;2.40;;
11344;SDS011;5727;42.600;23.028;2023-03-12T14:35:18;2.27;;;2.17;;
11344;SDS011;5727;42.600;23.028;2023-03-12T14:37:50;2.67;;;2.47;;
11344;SDS011;5727;42.600;23.028;2023-03-12T14:40:23;2.20;;;2.10;;
11344;SDS011;5727;42.600;23.028;2023-03-12T14:42:58;2.30;;;2.10;;
11344;SDS011;5727;42.600;23.028;2023-03-12T14:45:25;2.27;;;2.17;;
11344;SDS011;5727;42.600;23.028;2023-03-12T14:47:54;2.20;;;2.00;;
11344;SDS011;5727;42.600;23.028;2023-03-12T14:50:23;2.17;;;2.07;;
11344;SDS011;5727;42.600;23.028;2023-03-12T14:52:51;2.07;;;1.90;;
11344;SDS011;5727;42.600;23.028;2023-03-12T14:55:19;2.10;;;2.00;;
11344;SDS011;5727;42.600;23.028;2023-03-12T14:57:47;2.10;;;2.00;;
11344;SDS011;5727;42.600;23.028;2023-03-12T15:00:20;2.20;;;2.10;;
11344;SDS011;5727;42.600;23.028;2023-03-12T15:02:49;2.33;;;2.23;;
11344;SDS011;5727;42.600;23.028;2023-03-12T15:05:20;2.07;;;1.97;;
11344;SDS011;5727;42.600;23.028;2023-03-12T15:07:48;2.40;;;2.20;;
11344;SDS011;5727;42.600;23.028;2023-03-12T15:10:17;2.40;;;2.20;;
11344;SDS011;5727;42.600;23.028;2023-03-12T15:12:46;2.50;;;2.30;;
11344;SDS011;5727;42.600;23.028;2023-03-12T15:15:22;2.23;;;2.07;;
11344;SDS011;5727;42.600;23.028;2023-03-12T15:17:55;3.37;;;2.90;;
11344;SDS011;5727;42.600;23.028;2023-03-12T15:20:25;2.10;;;2.00;;